Time;durP1;ratioP1;P1;durP2;ratioP2;P2;SDS_P1;SDS_P2;PMS_P1;PMS_P2;Temp;Humidity;BMP_temperature;BMP_pressure;BME280_temperature;BME280_humidity;BME280_pressure;Samples;Min_cycle;Max_cycle;Signal;HPM_P1;HPM_P2
2022/12/17 13:05:51;;;;;;;;;;;22.40;37.60;;;;;;4966787;28;19956;-54
2022/12/17 13:08:18;;;;;;;;;;;22.40;37.60;;;;;;4959905;28;19919;-54
2022/12/17 13:10:44;;;;;;;;;;;22.30;37.60;;;;;;4950618;28;20017;-54
2022/12/17 13:13:28;;;;;;;;;;;22.30;37.70;;;;;;4950453;28;20001;-54
2022/12/17 13:15:55;;;;;;;;;;;22.30;37.80;;;;;;4952580;28;19962;-54
2022/12/17 13:18:27;;;;;;;;;;;22.30;37.90;;;;;;4949600;29;19915;-53
2022/12/17 13:20:58;;;;;;;;;;;22.20;38.00;;;;;;4951274;28;19917;-54
2022/12/17 13:23:25;;;;;;;;;;;22.10;37.90;;;;;;4951146;28;19918;-53
2022/12/17 13:26:02;;;;;;;;;;;22.10;38.20;;;;;;4951315;28;19911;-54
2022/12/17 13:28:28;;;;;;;;;;;22.00;38.30;;;;;;4950707;28;20453;-53
2022/12/17 13:31:12;;;;;;;;;;;21.90;38.50;;;;;;4950173;28;19917;-54
2022/12/17 13:33:38;;;;;;;;;;;21.90;38.60;;;;;;4955132;28;19915;-54
2022/12/17 13:36:19;;;;;;;;;;;21.80;38.60;;;;;;4950842;28;19919;-53
2022/12/17 13:38:48;;;;;;;;;;;21.80;38.60;;;;;;4953669;28;19980;-53
2022/12/17 13:41:15;;;;;;;;;;;21.80;38.70;;;;;;4944129;28;19926;-53
2022/12/17 13:43:44;;;;;;;;;;;21.80;38.60;;;;;;4941226;28;19984;-54
2022/12/17 13:46:22;;;;;;;;;;;21.90;38.60;;;;;;4954822;28;19918;-53
2022/12/17 13:48:51;;;;;;;;;;;22.00;38.60;;;;;;4954397;28;20005;-55
2022/12/17 13:51:17;;;;;;;;;;;22.10;38.50;;;;;;4962288;28;19913;-54
2022/12/17 13:53:49;;;;;;;;;;;22.20;38.40;;;;;;4950234;28;19989;-53
2022/12/17 13:56:20;;;;;;;;;;;22.30;38.20;;;;;;4952835;28;19921;-53
2022/12/17 13:58:49;;;;;;;;;;;22.30;38.00;;;;;;4952342;28;19914;-53
2022/12/17 14:01:14;;;;;;;;;;;22.40;38.10;;;;;;4953066;28;19977;-52
2022/12/17 14:03:42;;;;;;;;;;;22.40;38.00;;;;;;4943063;28;20360;-53
2022/12/17 14:06:07;;;;;;;;;;;22.40;38.10;;;;;;4954137;28;19922;-54
2022/12/17 14:08:33;;;;;;;;;;;22.40;38.10;;;;;;4968638;28;19964;-53
2022/12/17 14:13:43;;;;;;;;;;;22.30;38.30;;;;;;4951730;28;19921;-53
2022/12/17 14:16:09;;;;;;;;;;;22.30;38.30;;;;;;4932932;28;20390;-53
2022/12/17 14:18:34;;;;;;;;;;;22.20;38.20;;;;;;4932847;28;19922;-53
2022/12/17 14:21:00;;;;;;;;;;;22.20;38.10;;;;;;4953028;28;20366;-53
2022/12/17 14:23:27;;;;;;;;;;;22.10;38.20;;;;;;4954079;28;20330;-53
2022/12/17 14:25:52;;;;;;;;;;;22.00;38.30;;;;;;4955309;28;20329;-52
2022/12/17 14:28:20;;;;;;;;;;;22.00;38.70;;;;;;4966466;28;19926;-52
2022/12/17 14:30:45;;;;;;;;;;;22.00;38.70;;;;;;4953519;28;19922;-53
2022/12/17 14:33:29;;;;;;;;;;;22.00;38.60;;;;;;4953504;29;19915;-53
2022/12/17 14:35:56;;;;;;;;;;;22.10;38.70;;;;;;4953375;28;19922;-53
2022/12/17 14:38:22;;;;;;;;;;;22.10;38.50;;;;;;4953661;29;20320;-54
2022/12/17 14:40:47;;;;;;;;;;;22.10;38.60;;;;;;4954165;28;19918;-54
2022/12/17 14:43:12;;;;;;;;;;;22.20;38.60;;;;;;4968268;28;20477;-54
2022/12/17 14:46:19;;;;;;;;;;;22.20;38.50;;;;;;4952247;28;20389;-55
2022/12/17 14:48:59;;;;;;;;;;;22.20;38.30;;;;;;4952803;28;19922;-54
2022/12/17 14:51:19;;;;;;;;;;;22.20;38.30;;;;;;4964237;28;19927;-54
2022/12/17 14:53:45;;;;;;;;;;;22.20;38.50;;;;;;4966831;28;20366;-54
2022/12/17 14:56:19;;;;;;;;;;;22.20;38.60;;;;;;4959981;28;19921;-52
2022/12/17 14:58:44;;;;;;;;;;;22.10;38.70;;;;;;4989064;28;19997;-53
2022/12/17 15:01:11;;;;;;;;;;;22.10;38.70;;;;;;4998390;28;20003;-53
2022/12/17 15:03:37;;;;;;;;;;;22.20;38.80;;;;;;4955997;28;19949;-54
2022/12/17 15:06:04;;;;;;;;;;;22.10;38.80;;;;;;4951309;28;20389;-54
2022/12/17 15:08:30;;;;;;;;;;;22.10;38.90;;;;;;4938921;28;19933;-54
2022/12/17 15:10:56;;;;;;;;;;;22.10;38.90;;;;;;4957102;28;20297;-53
2022/12/17 15:13:21;;;;;;;;;;;22.10;38.80;;;;;;4952328;29;19914;-53
2022/12/17 15:15:47;;;;;;;;;;;22.10;39.00;;;;;;4955463;28;19923;-54
2022/12/17 15:18:12;;;;;;;;;;;22.10;39.10;;;;;;4948199;28;19921;-53
2022/12/17 15:20:37;;;;;;;;;;;22.10;39.00;;;;;;4952787;28;20325;-53
2022/12/17 15:23:03;;;;;;;;;;;22.20;39.00;;;;;;4952835;28;19925;-53
2022/12/17 15:25:29;;;;;;;;;;;22.20;39.10;;;;;;4952601;28;19976;-53
2022/12/17 15:27:54;;;;;;;;;;;22.20;39.00;;;;;;4952582;29;19965;-52
2022/12/17 15:30:19;;;;;;;;;;;22.30;38.90;;;;;;4953561;28;19914;-53
2022/12/17 15:32:45;;;;;;;;;;;22.30;38.90;;;;;;4952144;28;19914;-53
2022/12/17 15:35:11;;;;;;;;;;;22.30;38.80;;;;;;4951505;28;20014;-53
2022/12/17 15:37:36;;;;;;;;;;;22.30;38.90;;;;;;4958248;28;19915;-53
2022/12/17 15:40:02;;;;;;;;;;;22.30;38.90;;;;;;4956723;28;19965;-53
2022/12/17 15:45:12;;;;;;;;;;;22.20;39.00;;;;;;4952016;28;19921;-53
2022/12/17 15:47:37;;;;;;;;;;;22.20;39.10;;;;;;4952837;28;19918;-54
2022/12/17 15:50:03;;;;;;;;;;;22.20;39.20;;;;;;4953077;28;19921;-53
2022/12/17 15:52:28;;;;;;;;;;;22.20;39.20;;;;;;4996421;28;19972;-53
2022/12/17 15:54:54;;;;;;;;;;;22.20;39.40;;;;;;4951861;28;19966;-53
2022/12/17 15:57:19;;;;;;;;;;;22.10;39.30;;;;;;4968111;28;19963;-53
2022/12/17 15:59:45;;;;;;;;;;;22.10;39.30;;;;;;4953715;28;19914;-53
2022/12/17 16:02:10;;;;;;;;;;;22.10;39.20;;;;;;4952763;29;19917;-53
2022/12/17 16:04:36;;;;;;;;;;;22.20;39.30;;;;;;4965996;28;19926;-53
2022/12/17 16:07:02;;;;;;;;;;;22.20;39.10;;;;;;4996577;28;19914;-53
2022/12/17 16:09:27;;;;;;;;;;;22.20;39.20;;;;;;4961068;28;19914;-53
2022/12/17 16:11:53;;;;;;;;;;;22.20;39.10;;;;;;4965943;28;19915;-53
2022/12/17 16:14:19;;;;;;;;;;;22.20;38.90;;;;;;4950111;28;20020;-53
2022/12/17 16:16:44;;;;;;;;;;;22.30;39.10;;;;;;4956244;28;19914;-53
2022/12/17 16:19:10;;;;;;;;;;;22.30;38.80;;;;;;4951260;29;19915;-54
2022/12/17 16:21:35;;;;;;;;;;;22.30;39.00;;;;;;4952252;29;19915;-53
2022/12/17 16:24:00;;;;;;;;;;;22.30;39.00;;;;;;4957160;28;19915;-53
2022/12/17 16:26:26;;;;;;;;;;;22.30;38.90;;;;;;4951853;29;20386;-53
2022/12/17 16:28:51;;;;;;;;;;;22.30;38.80;;;;;;4951229;29;20009;-53
2022/12/17 16:31:17;;;;;;;;;;;22.30;38.80;;;;;;4947444;28;19990;-55
2022/12/17 16:33:42;;;;;;;;;;;22.30;39.00;;;;;;4942864;28;19911;-53
2022/12/17 16:36:09;;;;;;;;;;;22.30;39.00;;;;;;4944401;29;19933;-53
2022/12/17 16:38:40;;;;;;;;;;;22.30;38.90;;;;;;4951743;28;19942;-54
2022/12/17 16:41:05;;;;;;;;;;;22.30;39.00;;;;;;4952637;28;19919;-54
2022/12/17 16:43:32;;;;;;;;;;;22.30;38.90;;;;;;4950981;28;20306;-53
2022/12/17 16:45:57;;;;;;;;;;;22.20;38.90;;;;;;4951308;28;19917;-54
2022/12/17 16:48:22;;;;;;;;;;;22.30;39.00;;;;;;4951422;29;19919;-54
2022/12/17 16:50:48;;;;;;;;;;;22.30;39.00;;;;;;4951475;28;19910;-53
2022/12/17 16:53:14;;;;;;;;;;;22.30;39.00;;;;;;4951043;28;19918;-54
2022/12/17 16:55:43;;;;;;;;;;;22.20;38.90;;;;;;4950905;29;19918;-54
2022/12/17 16:58:09;;;;;;;;;;;22.30;39.00;;;;;;4950764;28;19931;-54
2022/12/17 17:00:34;;;;;;;;;;;22.30;38.90;;;;;;4943591;29;20374;-53
2022/12/17 17:03:00;;;;;;;;;;;22.30;38.90;;;;;;4940019;29;19919;-54
2022/12/17 17:05:25;;;;;;;;;;;22.30;38.70;;;;;;4946323;28;19929;-54
2022/12/17 17:07:51;;;;;;;;;;;22.30;39.00;;;;;;4945858;28;19926;-53
2022/12/17 17:10:16;;;;;;;;;;;22.30;38.90;;;;;;4945893;28;19923;-54
2022/12/17 17:12:41;;;;;;;;;;;22.30;38.90;;;;;;4942407;28;19915;-54
2022/12/17 17:15:07;;;;;;;;;;;22.30;39.10;;;;;;4941325;28;19965;-52
2022/12/17 17:17:33;;;;;;;;;;;22.30;38.90;;;;;;4944620;29;19914;-53
2022/12/17 17:19:58;;;;;;;;;;;22.30;38.90;;;;;;4941886;29;19926;-53
2022/12/17 17:22:23;;;;;;;;;;;22.20;39.00;;;;;;4940062;29;19919;-52
2022/12/17 17:24:49;;;;;;;;;;;22.20;39.00;;;;;;4938352;29;19922;-53
2022/12/17 17:27:14;;;;;;;;;;;22.20;38.90;;;;;;4941333;28;19919;-53
2022/12/17 17:29:40;;;;;;;;;;;22.30;38.90;;;;;;4938164;28;19998;-53
2022/12/17 17:32:05;;;;;;;;;;;22.30;39.20;;;;;;4947930;28;20412;-53
2022/12/17 17:34:31;;;;;;;;;;;22.20;39.00;;;;;;4945098;28;20291;-55
2022/12/17 17:36:56;;;;;;;;;;;22.20;39.10;;;;;;4942192;29;20005;-54
2022/12/17 17:39:22;;;;;;;;;;;22.20;39.10;;;;;;4940751;28;20002;-52
2022/12/17 17:41:47;;;;;;;;;;;22.30;39.20;;;;;;4943397;28;19914;-53
2022/12/17 17:44:13;;;;;;;;;;;22.30;39.00;;;;;;4940998;28;19925;-52
2022/12/17 17:46:38;;;;;;;;;;;22.30;39.10;;;;;;4949984;28;19914;-53
2022/12/17 17:49:04;;;;;;;;;;;22.30;39.10;;;;;;4946387;28;19918;-53
2022/12/17 17:51:31;;;;;;;;;;;22.30;39.10;;;;;;4946371;28;19914;-54
2022/12/17 17:53:56;;;;;;;;;;;22.30;39.20;;;;;;4949242;28;19914;-54
2022/12/17 17:56:23;;;;;;;;;;;22.30;39.00;;;;;;4959797;28;20061;-54
2022/12/17 17:58:49;;;;;;;;;;;22.30;39.10;;;;;;4957473;28;19920;-53
2022/12/17 18:01:35;;;;;;;;;;;22.30;39.00;;;;;;4940794;28;19920;-54
2022/12/17 18:04:01;;;;;;;;;;;22.30;38.80;;;;;;4947743;28;19911;-53
2022/12/17 18:06:26;;;;;;;;;;;22.30;39.00;;;;;;4962919;28;19959;-53
2022/12/17 18:08:52;;;;;;;;;;;22.30;38.90;;;;;;4941886;29;19919;-53
2022/12/17 18:11:18;;;;;;;;;;;22.30;38.80;;;;;;4931222;28;19998;-54
2022/12/17 18:13:55;;;;;;;;;;;22.30;39.10;;;;;;4937767;28;19918;-53
2022/12/17 18:16:22;;;;;;;;;;;22.30;38.70;;;;;;4931478;28;19911;-53
2022/12/17 18:18:47;;;;;;;;;;;22.30;38.90;;;;;;4941606;28;20439;-54
2022/12/17 18:21:14;;;;;;;;;;;22.30;39.00;;;;;;4965512;28;20021;-54
2022/12/17 18:23:39;;;;;;;;;;;22.30;39.00;;;;;;4950554;28;20348;-54
2022/12/17 18:26:05;;;;;;;;;;;22.30;39.00;;;;;;4947744;29;19915;-53
2022/12/17 18:28:31;;;;;;;;;;;22.40;39.00;;;;;;4958305;28;19918;-54
2022/12/17 18:30:57;;;;;;;;;;;22.40;39.00;;;;;;4952367;28;19966;-54
2022/12/17 18:33:24;;;;;;;;;;;22.40;39.10;;;;;;4952652;28;20375;-54
2022/12/17 18:35:49;;;;;;;;;;;22.40;38.90;;;;;;4947244;28;19926;-54
2022/12/17 18:38:15;;;;;;;;;;;22.30;39.20;;;;;;4964393;28;19958;-54
2022/12/17 18:40:40;;;;;;;;;;;22.20;39.20;;;;;;4945446;28;19954;-54
2022/12/17 18:43:22;;;;;;;;;;;22.10;39.40;;;;;;4944277;28;20372;-54
2022/12/17 18:45:48;;;;;;;;;;;21.90;38.60;;;;;;5006996;28;20428;-54
2022/12/17 18:48:13;;;;;;;;;;;21.70;39.20;;;;;;4969230;28;19918;-54
2022/12/17 18:50:39;;;;;;;;;;;21.60;38.60;;;;;;4948910;29;19988;-53
2022/12/17 18:53:04;;;;;;;;;;;21.50;38.70;;;;;;4952579;28;19914;-53
2022/12/17 18:55:29;;;;;;;;;;;21.40;39.30;;;;;;4952764;28;19922;-54
2022/12/17 18:57:55;;;;;;;;;;;21.30;39.50;;;;;;4946491;28;19964;-54
2022/12/17 19:00:20;;;;;;;;;;;21.20;39.30;;;;;;4952695;28;19957;-53
2022/12/17 19:02:46;;;;;;;;;;;21.10;39.70;;;;;;4953323;28;19922;-53
2022/12/17 19:05:11;;;;;;;;;;;21.00;39.70;;;;;;4953388;29;19976;-53
2022/12/17 19:07:37;;;;;;;;;;;20.90;39.80;;;;;;4951068;29;19918;-53
2022/12/17 19:10:02;;;;;;;;;;;20.90;39.90;;;;;;4952059;28;19918;-53
2022/12/17 19:12:28;;;;;;;;;;;20.80;40.00;;;;;;4952175;28;20294;-54
2022/12/17 19:14:53;;;;;;;;;;;20.80;40.10;;;;;;4945417;28;20281;-54
2022/12/17 19:17:19;;;;;;;;;;;20.80;40.20;;;;;;4962046;28;19918;-54
2022/12/17 19:19:44;;;;;;;;;;;20.70;40.10;;;;;;4952031;28;20337;-54
2022/12/17 19:22:10;;;;;;;;;;;20.60;40.10;;;;;;4917424;29;20014;-54
2022/12/17 19:24:35;;;;;;;;;;;20.60;40.40;;;;;;4949895;29;19926;-54
2022/12/17 19:27:01;;;;;;;;;;;20.60;40.40;;;;;;4952333;28;19914;-54
2022/12/17 19:29:26;;;;;;;;;;;20.60;40.30;;;;;;4951960;28;19921;-54
2022/12/17 19:31:51;;;;;;;;;;;20.50;40.40;;;;;;4952252;28;19953;-54
2022/12/17 19:34:17;;;;;;;;;;;20.50;40.60;;;;;;4950984;28;20367;-54
2022/12/17 19:36:43;;;;;;;;;;;20.40;40.40;;;;;;4950181;29;20009;-54
2022/12/17 19:39:12;;;;;;;;;;;20.40;40.40;;;;;;4947102;28;19958;-54
2022/12/17 19:41:37;;;;;;;;;;;20.40;40.30;;;;;;4933930;28;19915;-54
2022/12/17 19:44:04;;;;;;;;;;;20.40;40.80;;;;;;4950206;28;19925;-54
2022/12/17 19:46:30;;;;;;;;;;;20.40;40.70;;;;;;4952681;28;20005;-54
2022/12/17 19:48:55;;;;;;;;;;;20.30;40.60;;;;;;4946842;28;19926;-54
2022/12/17 19:51:21;;;;;;;;;;;20.30;40.40;;;;;;4965167;28;20390;-53
2022/12/17 19:53:46;;;;;;;;;;;20.30;40.60;;;;;;4984307;28;19913;-54
2022/12/17 19:56:25;;;;;;;;;;;20.30;40.40;;;;;;4965425;28;19998;-54
2022/12/17 19:58:51;;;;;;;;;;;20.30;40.40;;;;;;4937656;28;19915;-54
2022/12/17 20:01:18;;;;;;;;;;;20.20;40.70;;;;;;4951774;28;20371;-54
2022/12/17 20:03:44;;;;;;;;;;;20.20;40.60;;;;;;4936015;28;19957;-54
2022/12/17 20:06:09;;;;;;;;;;;20.20;40.80;;;;;;4963603;28;19966;-54
2022/12/17 20:08:35;;;;;;;;;;;20.20;40.60;;;;;;4952337;28;19925;-54
2022/12/17 20:11:01;;;;;;;;;;;20.20;40.50;;;;;;4955961;28;19918;-54
2022/12/17 20:13:27;;;;;;;;;;;20.20;40.70;;;;;;4945224;28;20353;-53
2022/12/17 20:15:59;;;;;;;;;;;20.20;40.50;;;;;;4951097;28;19915;-54
2022/12/17 20:18:24;;;;;;;;;;;20.10;40.40;;;;;;4950993;28;19921;-54
2022/12/17 20:20:50;;;;;;;;;;;20.10;40.50;;;;;;4950820;28;19917;-54
2022/12/17 20:23:15;;;;;;;;;;;20.10;40.50;;;;;;4951687;28;19953;-54
2022/12/17 20:25:41;;;;;;;;;;;20.20;40.50;;;;;;4943898;28;19922;-54
2022/12/17 20:28:06;;;;;;;;;;;20.10;40.50;;;;;;4942324;28;19918;-54
2022/12/17 20:30:32;;;;;;;;;;;20.10;40.50;;;;;;4953891;28;19915;-54
2022/12/17 20:32:57;;;;;;;;;;;20.10;40.50;;;;;;4951103;29;19919;-54
2022/12/17 20:35:23;;;;;;;;;;;20.10;40.50;;;;;;4951015;28;20024;-54
2022/12/17 20:37:48;;;;;;;;;;;20.10;40.40;;;;;;4951834;28;20026;-54
2022/12/17 20:40:14;;;;;;;;;;;20.10;40.40;;;;;;4950044;28;19926;-54
2022/12/17 20:42:39;;;;;;;;;;;20.10;40.30;;;;;;4954694;28;19964;-54
2022/12/17 20:45:05;;;;;;;;;;;20.10;40.30;;;;;;4942491;29;19967;-54
2022/12/17 20:47:30;;;;;;;;;;;20.10;40.30;;;;;;4949812;28;19953;-54
2022/12/17 20:49:55;;;;;;;;;;;20.00;40.50;;;;;;4943293;28;19915;-54
2022/12/17 20:52:21;;;;;;;;;;;20.00;40.40;;;;;;4954454;28;19922;-54
2022/12/17 20:54:48;;;;;;;;;;;20.00;40.50;;;;;;4952718;28;20005;-54
2022/12/17 20:57:13;;;;;;;;;;;20.00;40.50;;;;;;4951189;28;19910;-54
2022/12/17 20:59:39;;;;;;;;;;;20.00;40.30;;;;;;4947384;28;19930;-54
2022/12/17 21:02:04;;;;;;;;;;;20.00;40.40;;;;;;4950936;28;19914;-54
2022/12/17 21:04:30;;;;;;;;;;;20.00;40.50;;;;;;4941959;28;20294;-54
2022/12/17 21:06:55;;;;;;;;;;;20.00;40.40;;;;;;4950709;28;19925;-54
2022/12/17 21:09:21;;;;;;;;;;;20.00;40.50;;;;;;4946314;28;19921;-54
2022/12/17 21:11:47;;;;;;;;;;;20.00;40.60;;;;;;4967952;28;19922;-54
2022/12/17 21:14:13;;;;;;;;;;;20.00;40.50;;;;;;4966883;28;19922;-54
2022/12/17 21:16:39;;;;;;;;;;;19.90;40.20;;;;;;4943212;28;19922;-54
2022/12/17 21:19:05;;;;;;;;;;;19.90;40.30;;;;;;4936889;29;20415;-54
2022/12/17 21:21:31;;;;;;;;;;;19.90;40.40;;;;;;4951426;28;19914;-54
2022/12/17 21:23:56;;;;;;;;;;;19.90;40.40;;;;;;4954423;28;19919;-54
2022/12/17 21:26:23;;;;;;;;;;;19.90;40.50;;;;;;4932106;29;20329;-54
2022/12/17 21:28:49;;;;;;;;;;;19.90;40.70;;;;;;4950224;28;20389;-54
2022/12/17 21:31:24;;;;;;;;;;;19.90;40.50;;;;;;4973093;28;19961;-54
2022/12/17 21:33:50;;;;;;;;;;;19.90;40.40;;;;;;4948107;29;20374;-54
2022/12/17 21:36:16;;;;;;;;;;;19.90;40.60;;;;;;4946981;28;19944;-54
2022/12/17 21:38:41;;;;;;;;;;;19.90;40.40;;;;;;4932231;28;19985;-54
2022/12/17 21:41:08;;;;;;;;;;;19.90;40.30;;;;;;4935462;29;19918;-54
2022/12/17 21:43:33;;;;;;;;;;;19.90;40.10;;;;;;4950731;29;20008;-54
2022/12/17 21:45:59;;;;;;;;;;;19.90;40.50;;;;;;4949585;28;19930;-54
2022/12/17 21:48:24;;;;;;;;;;;19.90;40.20;;;;;;4947130;28;19923;-54
2022/12/17 21:50:50;;;;;;;;;;;19.90;40.30;;;;;;4946009;28;19915;-54
2022/12/17 21:53:15;;;;;;;;;;;19.80;40.10;;;;;;4969049;28;19973;-54
2022/12/17 21:55:41;;;;;;;;;;;19.70;40.30;;;;;;4944667;28;19915;-54
2022/12/17 21:58:07;;;;;;;;;;;19.70;40.40;;;;;;4947181;28;19914;-54
2022/12/17 22:00:32;;;;;;;;;;;19.60;40.40;;;;;;4945204;29;20338;-54
2022/12/17 22:02:58;;;;;;;;;;;19.60;40.80;;;;;;4946949;28;19946;-54
2022/12/17 22:05:23;;;;;;;;;;;19.50;40.60;;;;;;4942838;28;20283;-54
2022/12/17 22:07:48;;;;;;;;;;;19.50;40.80;;;;;;4947058;28;19923;-54
2022/12/17 22:10:14;;;;;;;;;;;19.50;40.90;;;;;;4936892;29;19998;-54
2022/12/17 22:15:23;;;;;;;;;;;19.40;41.00;;;;;;4946400;29;19961;-54
2022/12/17 22:17:49;;;;;;;;;;;19.40;40.70;;;;;;4946132;29;19922;-54
2022/12/17 22:20:15;;;;;;;;;;;19.50;41.10;;;;;;4953577;28;19914;-54
2022/12/17 22:22:41;;;;;;;;;;;19.50;40.70;;;;;;4952212;28;19965;-54
2022/12/17 22:25:07;;;;;;;;;;;19.50;40.00;;;;;;4940282;28;20455;-54
2022/12/17 22:27:32;;;;;;;;;;;19.50;40.30;;;;;;4952454;28;19952;-54
2022/12/17 22:33:01;;;;;;;;;;;19.50;40.00;;;;;;4938414;29;20378;-54
2022/12/17 22:35:26;;;;;;;;;;;19.50;40.50;;;;;;4951576;28;20016;-54
2022/12/17 22:37:52;;;;;;;;;;;19.50;40.20;;;;;;4948803;28;19911;-54
2022/12/17 22:40:19;;;;;;;;;;;19.50;40.20;;;;;;4951709;29;19915;-54
2022/12/17 22:45:29;;;;;;;;;;;19.40;40.00;;;;;;4952690;29;19937;-54
2022/12/17 22:47:54;;;;;;;;;;;19.40;39.80;;;;;;4952917;29;19923;-54
2022/12/17 22:50:20;;;;;;;;;;;19.30;40.20;;;;;;4949865;28;19918;-54
2022/12/17 22:52:45;;;;;;;;;;;19.30;40.10;;;;;;5003480;28;19915;-54
2022/12/17 22:55:10;;;;;;;;;;;19.20;40.20;;;;;;4953539;28;19921;-54
2022/12/17 22:57:36;;;;;;;;;;;19.20;40.20;;;;;;4952712;29;20016;-54
2022/12/17 23:00:02;;;;;;;;;;;19.20;39.90;;;;;;4949523;29;20335;-54
2022/12/17 23:02:27;;;;;;;;;;;19.20;40.00;;;;;;4948230;28;20033;-54
2022/12/17 23:04:53;;;;;;;;;;;19.20;39.70;;;;;;4948851;28;19994;-54
2022/12/17 23:07:18;;;;;;;;;;;19.20;39.80;;;;;;4950479;29;19929;-54
2022/12/17 23:09:44;;;;;;;;;;;19.20;39.80;;;;;;4951485;28;19918;-55
2022/12/17 23:14:53;;;;;;;;;;;19.20;39.90;;;;;;4952759;29;19972;-54
2022/12/17 23:17:19;;;;;;;;;;;19.20;39.30;;;;;;4952679;29;19923;-54
2022/12/17 23:19:44;;;;;;;;;;;19.30;39.50;;;;;;4952743;29;19918;-54
2022/12/17 23:22:10;;;;;;;;;;;19.30;39.00;;;;;;4953290;29;20365;-54
2022/12/17 23:24:35;;;;;;;;;;;19.30;39.10;;;;;;4952704;29;19954;-55
2022/12/17 23:27:00;;;;;;;;;;;19.30;39.50;;;;;;4952474;29;19922;-54
2022/12/17 23:29:26;;;;;;;;;;;19.30;39.00;;;;;;4951539;28;20072;-55
2022/12/17 23:31:51;;;;;;;;;;;19.30;39.00;;;;;;4949826;29;19922;-54
2022/12/17 23:34:17;;;;;;;;;;;19.30;39.30;;;;;;4951577;28;20022;-55
2022/12/17 23:36:42;;;;;;;;;;;19.30;39.30;;;;;;4950438;28;19914;-54
2022/12/17 23:39:08;;;;;;;;;;;19.30;39.20;;;;;;4951324;28;19959;-55
2022/12/17 23:41:33;;;;;;;;;;;19.30;38.90;;;;;;4950209;28;19988;-55
2022/12/17 23:43:59;;;;;;;;;;;19.30;38.90;;;;;;4951632;29;19925;-54
2022/12/17 23:46:25;;;;;;;;;;;19.20;38.90;;;;;;4950225;29;19961;-54
2022/12/17 23:48:50;;;;;;;;;;;19.20;39.30;;;;;;4951861;28;19922;-54
2022/12/17 23:51:16;;;;;;;;;;;19.20;38.90;;;;;;4962749;28;19919;-54
2022/12/17 23:53:42;;;;;;;;;;;19.10;38.20;;;;;;4952151;28;20283;-54
2022/12/17 23:56:08;;;;;;;;;;;19.10;38.80;;;;;;4951347;28;20325;-54
2022/12/17 23:58:34;;;;;;;;;;;19.10;38.80;;;;;;4952504;28;19915;-54
